Time;durP1;ratioP1;P1;durP2;ratioP2;P2;SDS_P1;SDS_P2;PMS_P1;PMS_P2;Temp;Humidity;BMP_temperature;BMP_pressure;BME280_temperature;BME280_humidity;BME280_pressure;Samples;Min_cycle;Max_cycle;Signal;HPM_P1;HPM_P2
2021/01/26 00:00:40;;;;;;;1.87;1.50;;;21.80;50.70;;;;;;5034731;28;20415;-83
2021/01/26 00:03:06;;;;;;;2.17;1.90;;;21.80;50.70;;;;;;5037320;28;20457;-84
2021/01/26 00:05:32;;;;;;;2.67;2.03;;;21.80;50.70;;;;;;5036344;28;20461;-83
2021/01/26 00:07:58;;;;;;;2.50;1.77;;;21.70;50.60;;;;;;5052718;28;20248;-83
2021/01/26 00:10:24;;;;;;;2.70;2.27;;;21.80;50.70;;;;;;5054744;28;20411;-83
2021/01/26 00:12:50;;;;;;;2.20;1.83;;;21.70;50.70;;;;;;5034913;28;20534;-83
2021/01/26 00:15:16;;;;;;;1.93;1.40;;;21.70;50.70;;;;;;5053795;28;20450;-83
2021/01/26 00:17:42;;;;;;;2.10;1.80;;;21.70;50.70;;;;;;5036786;28;20422;-84
2021/01/26 00:20:12;;;;;;;1.73;1.60;;;21.70;50.70;;;;;;5052007;28;20398;-84
2021/01/26 00:22:38;;;;;;;2.17;1.67;;;21.70;50.80;;;;;;5034297;28;20171;-83
2021/01/26 00:25:06;;;;;;;2.07;1.77;;;21.70;50.70;;;;;;5034553;28;20422;-83
2021/01/26 00:27:31;;;;;;;2.03;1.70;;;21.70;50.70;;;;;;5051266;28;20415;-83
2021/01/26 00:29:57;;;;;;;2.23;1.83;;;21.70;50.70;;;;;;5033660;28;20418;-83
2021/01/26 00:32:23;;;;;;;3.23;1.67;;;21.70;50.70;;;;;;5033726;28;20172;-84
2021/01/26 00:34:49;;;;;;;1.60;1.40;;;21.70;50.70;;;;;;5017478;28;20207;-83
2021/01/26 00:37:15;;;;;;;3.47;2.30;;;21.70;50.70;;;;;;5034133;28;20418;-83
2021/01/26 00:39:43;;;;;;;2.20;1.50;;;21.70;50.70;;;;;;5051108;28;20421;-83
2021/01/26 00:42:09;;;;;;;1.70;1.40;;;21.70;50.70;;;;;;5034186;28;20418;-83
2021/01/26 00:44:35;;;;;;;2.33;1.77;;;21.70;50.70;;;;;;5019942;28;20422;-83
2021/01/26 00:47:01;;;;;;;2.90;1.77;;;21.70;50.70;;;;;;5051974;28;20418;-83
2021/01/26 00:49:26;;;;;;;1.90;1.70;;;21.70;50.70;;;;;;5052406;28;20182;-83
2021/01/26 00:51:52;;;;;;;2.13;1.80;;;21.70;50.70;;;;;;5036830;28;20611;-83
2021/01/26 00:54:19;;;;;;;1.70;1.50;;;21.70;50.60;;;;;;5033632;28;20621;-83
2021/01/26 00:56:45;;;;;;;1.60;1.50;;;21.70;50.70;;;;;;5035039;28;20175;-83
2021/01/26 00:59:14;;;;;;;1.40;1.30;;;21.70;50.70;;;;;;5053368;28;20410;-83
2021/01/26 01:01:40;;;;;;;2.10;1.43;;;21.70;50.70;;;;;;5033103;28;20176;-83
2021/01/26 01:04:05;;;;;;;1.93;1.60;;;21.60;50.60;;;;;;5031567;28;20414;-83
2021/01/26 01:06:32;;;;;;;2.10;1.83;;;21.70;50.70;;;;;;5049425;28;20929;-83
2021/01/26 01:08:58;;;;;;;2.60;1.70;;;21.70;50.70;;;;;;5049905;28;20417;-83
2021/01/26 01:11:28;;;;;;;2.20;1.73;;;21.70;50.70;;;;;;5031484;28;20183;-83
2021/01/26 01:13:54;;;;;;;1.93;1.70;;;21.60;50.60;;;;;;5049732;28;20434;-83
2021/01/26 01:16:20;;;;;;;2.60;1.70;;;21.60;50.70;;;;;;5032758;28;20494;-84
2021/01/26 01:18:45;;;;;;;2.70;1.60;;;21.60;50.70;;;;;;5030344;28;20187;-83
2021/01/26 01:21:11;;;;;;;2.10;1.63;;;21.60;50.70;;;;;;5032834;28;20175;-84
2021/01/26 01:23:37;;;;;;;2.33;2.13;;;21.60;50.70;;;;;;5033655;28;20180;-84
2021/01/26 01:26:04;;;;;;;1.93;1.70;;;21.60;50.70;;;;;;5033766;28;20180;-84
2021/01/26 01:28:29;;;;;;;2.00;1.57;;;21.60;50.70;;;;;;5034954;28;20187;-84
2021/01/26 01:30:56;;;;;;;2.10;1.60;;;21.60;50.70;;;;;;5037688;28;20395;-84
2021/01/26 01:33:27;;;;;;;2.17;1.80;;;21.60;50.70;;;;;;5034626;28;20186;-84
2021/01/26 01:35:53;;;;;;;1.67;1.40;;;21.60;50.80;;;;;;5052112;28;20468;-83
2021/01/26 01:38:19;;;;;;;2.90;1.93;;;21.50;50.70;;;;;;5033803;28;20415;-83
2021/01/26 01:40:45;;;;;;;2.70;1.63;;;21.50;50.70;;;;;;5053113;28;20398;-83
2021/01/26 01:43:10;;;;;;;2.13;1.67;;;21.60;50.80;;;;;;5033559;28;20422;-83
2021/01/26 01:45:36;;;;;;;2.10;1.63;;;21.50;50.70;;;;;;5032460;28;20218;-84
2021/01/26 01:48:11;;;;;;;2.73;1.87;;;21.50;50.70;;;;;;5049730;28;20175;-84
2021/01/26 01:50:46;;;;;;;1.60;1.40;;;21.50;50.80;;;;;;5050491;28;20159;-84
2021/01/26 01:53:28;;;;;;;1.97;1.50;;;21.50;50.80;;;;;;5049788;28;20750;-84
2021/01/26 01:56:03;;;;;;;1.90;1.50;;;21.50;50.70;;;;;;5050014;28;20477;-84
2021/01/26 01:58:33;;;;;;;1.90;1.60;;;21.50;50.80;;;;;;5016179;28;20421;-84
2021/01/26 02:01:06;;;;;;;2.33;1.40;;;21.50;50.80;;;;;;5049876;28;20433;-84
2021/01/26 02:03:36;;;;;;;2.10;1.30;;;21.50;50.80;;;;;;5033173;28;20434;-83
2021/01/26 02:06:02;;;;;;;1.43;1.30;;;21.50;50.80;;;;;;5052618;28;20470;-83
2021/01/26 02:08:47;;;;;;;2.87;1.53;;;21.50;50.80;;;;;;5051115;28;20417;-83
2021/01/26 02:11:16;;;;;;;2.13;1.50;;;21.50;50.80;;;;;;5052250;28;20430;-84
2021/01/26 02:13:42;;;;;;;2.00;1.80;;;21.50;50.80;;;;;;5038818;28;20743;-83
2021/01/26 02:16:16;;;;;;;1.90;1.50;;;21.50;50.80;;;;;;5053118;28;20537;-83
2021/01/26 02:19:25;;;;;;;2.00;1.70;;;21.50;50.70;;;;;;5055973;28;20152;-83
2021/01/26 02:21:54;;;;;;;1.60;1.20;;;21.50;50.70;;;;;;4970470;28;20417;-83
2021/01/26 02:24:36;;;;;;;2.00;1.50;;;21.50;50.70;;;;;;4976316;28;20490;-83
2021/01/26 02:27:36;;;;;;;3.37;1.80;;;21.50;50.70;;;;;;4992852;28;20424;-83
2021/01/26 02:30:14;;;;;;;1.60;1.37;;;21.50;50.70;;;;;;4951212;28;20464;-83
2021/01/26 02:32:49;;;;;;;1.57;1.40;;;21.50;50.70;;;;;;4991942;28;20420;-83
2021/01/26 02:35:36;;;;;;;1.70;1.60;;;21.50;50.70;;;;;;4976739;28;20456;-84
2021/01/26 02:38:04;;;;;;;2.07;1.67;;;21.50;50.70;;;;;;4986565;28;20503;-84
2021/01/26 02:40:38;;;;;;;1.90;1.70;;;21.50;50.70;;;;;;4975920;28;20458;-83
2021/01/26 02:43:17;;;;;;;2.00;1.57;;;21.50;50.70;;;;;;4975154;28;20428;-84
2021/01/26 02:46:14;;;;;;;2.50;2.00;;;21.50;50.70;;;;;;4993910;28;20424;-84
2021/01/26 02:49:09;;;;;;;2.40;2.20;;;21.50;50.60;;;;;;4968602;28;20443;-84
2021/01/26 02:55:18;;;;;;;2.03;1.50;;;21.50;50.70;;;;;;4900232;29;20509;-84
2021/01/26 02:58:09;;;;;;;1.80;1.47;;;21.40;50.70;;;;;;4975739;28;20449;-83
2021/01/26 03:00:37;;;;;;;1.80;1.40;;;21.50;50.80;;;;;;5038411;28;20422;-84
2021/01/26 03:03:09;;;;;;;2.33;1.57;;;21.40;50.70;;;;;;5035921;28;20418;-84
2021/01/26 03:05:43;;;;;;;1.53;1.30;;;21.50;50.80;;;;;;5052473;28;20399;-84
2021/01/26 03:08:30;;;;;;;2.30;1.60;;;21.50;50.70;;;;;;5034315;28;20840;-84
2021/01/26 03:11:22;;;;;;;1.43;1.30;;;21.40;50.70;;;;;;5034625;28;20444;-84
2021/01/26 03:14:12;;;;;;;2.30;1.40;;;21.40;50.60;;;;;;5052794;28;20405;-84
2021/01/26 03:16:42;;;;;;;1.70;1.40;;;21.50;50.70;;;;;;5052080;28;20437;-84
2021/01/26 03:19:13;;;;;;;2.20;1.50;;;21.40;50.70;;;;;;5034909;28;20424;-83
2021/01/26 03:21:43;;;;;;;1.80;1.40;;;21.50;50.80;;;;;;5051761;28;20395;-84
2021/01/26 03:24:20;;;;;;;1.90;1.60;;;21.50;50.70;;;;;;5034258;28;20424;-84
2021/01/26 03:26:46;;;;;;;1.97;1.50;;;21.40;50.70;;;;;;5053214;28;20395;-84
2021/01/26 03:29:17;;;;;;;2.77;1.43;;;21.40;50.70;;;;;;5054394;28;20421;-83
2021/01/26 03:31:52;;;;;;;2.07;1.70;;;21.40;50.70;;;;;;5035080;28;20418;-84
2021/01/26 03:34:28;;;;;;;2.70;1.60;;;21.40;50.70;;;;;;5036205;28;20489;-84
2021/01/26 03:36:54;;;;;;;2.30;1.87;;;21.50;50.70;;;;;;5036947;28;20494;-83
2021/01/26 03:39:20;;;;;;;1.90;1.50;;;21.40;50.70;;;;;;5034606;28;20419;-83
2021/01/26 03:41:58;;;;;;;1.40;1.20;;;21.40;50.70;;;;;;5055136;28;20407;-84
2021/01/26 03:44:24;;;;;;;2.03;1.60;;;21.40;50.70;;;;;;5035243;28;20186;-83
2021/01/26 03:47:26;;;;;;;2.63;1.60;;;21.40;50.70;;;;;;5033224;28;20423;-83
2021/01/26 03:50:39;;;;;;;1.80;1.33;;;21.40;50.70;;;;;;5033293;28;20517;-84
2021/01/26 03:53:32;;;;;;;2.13;1.53;;;21.40;50.70;;;;;;5000705;28;20933;-84
2021/01/26 03:56:17;;;;;;;1.73;1.60;;;21.30;50.70;;;;;;5034493;28;20515;-84
2021/01/26 03:59:41;;;;;;;2.13;1.77;;;21.40;50.80;;;;;;5031983;28;20410;-83
2021/01/26 04:02:52;;;;;;;1.60;1.30;;;21.40;50.80;;;;;;5017434;28;20494;-84
2021/01/26 04:06:10;;;;;;;1.90;1.37;;;21.40;50.80;;;;;;5049707;28;20402;-83
2021/01/26 04:08:54;;;;;;;1.83;1.57;;;21.40;50.80;;;;;;4976001;28;20422;-83
2021/01/26 04:12:03;;;;;;;1.93;1.47;;;21.40;50.80;;;;;;4975074;28;20528;-83
2021/01/26 04:14:34;;;;;;;1.60;1.30;;;21.40;50.80;;;;;;4976182;28;20457;-85
2021/01/26 04:17:06;;;;;;;1.73;1.33;;;21.40;50.80;;;;;;4977291;28;20417;-85
2021/01/26 04:19:57;;;;;;;1.80;1.60;;;21.30;50.70;;;;;;4994947;28;20503;-85
2021/01/26 04:22:42;;;;;;;1.50;1.30;;;21.40;50.80;;;;;;4979606;28;20421;-84
2021/01/26 04:25:31;;;;;;;1.50;1.30;;;21.40;50.70;;;;;;4979801;28;20413;-84
2021/01/26 04:27:58;;;;;;;1.53;1.13;;;21.40;50.70;;;;;;4977854;28;20460;-83
2021/01/26 04:30:40;;;;;;;;;;;;;;;;;;;;;
2021/01/26 04:33:23;;;;;;;1.77;1.20;;;21.40;50.70;;;;;;4995905;28;20433;-85
2021/01/26 04:36:10;;;;;;;1.57;1.23;;;21.40;50.70;;;;;;4964241;28;20477;-86
2021/01/26 04:38:51;;;;;;;1.60;1.30;;;21.40;50.70;;;;;;4978229;28;20425;-85
2021/01/26 04:42:02;;;;;;;1.60;1.10;;;21.40;50.70;;;;;;4978674;28;20413;-85
2021/01/26 04:45:05;;;;;;;1.47;1.27;;;21.40;50.70;;;;;;5004281;28;20444;-85
2021/01/26 04:47:45;;;;;;;1.70;1.30;;;21.30;50.70;;;;;;5035544;28;20417;-85
2021/01/26 04:51:11;;;;;;;1.33;1.23;;;21.30;50.80;;;;;;5036381;28;20409;-85
2021/01/26 04:54:02;;;;;;;1.37;1.20;;;21.30;50.70;;;;;;4992518;28;20417;-85
2021/01/26 04:57:06;;;;;;;1.40;1.30;;;21.20;51.30;;;;;;4993718;28;20409;-85
2021/01/26 04:59:53;;;;;;;2.07;1.30;;;21.30;50.90;;;;;;4994301;28;20408;-84
2021/01/26 05:02:48;;;;;;;1.53;1.10;;;21.30;51.40;;;;;;4993980;28;20398;-85
2021/01/26 05:05:19;;;;;;;1.80;1.20;;;21.20;50.80;;;;;;4982770;28;20413;-84
2021/01/26 05:07:54;;;;;;;2.00;1.40;;;21.20;50.90;;;;;;4962067;28;20448;-83
2021/01/26 05:10:32;;;;;;;2.00;1.30;;;21.20;50.80;;;;;;4974284;28;20445;-84
2021/01/26 05:13:13;;;;;;;1.50;1.17;;;21.20;50.80;;;;;;4991204;28;20437;-84
2021/01/26 05:15:42;;;;;;;1.60;1.33;;;21.20;50.90;;;;;;4978141;28;20825;-84
2021/01/26 05:18:29;;;;;;;1.60;1.50;;;21.20;50.90;;;;;;4994579;28;20397;-85
2021/01/26 05:21:04;;;;;;;1.20;1.10;;;21.20;50.90;;;;;;4993644;28;20405;-83
2021/01/26 05:23:44;;;;;;;1.50;1.30;;;21.20;50.90;;;;;;4978643;28;20433;-84
2021/01/26 05:26:17;;;;;;;1.10;1.00;;;21.20;50.90;;;;;;5053360;28;20390;-84
2021/01/26 05:28:55;;;;;;;1.93;1.43;;;21.10;50.80;;;;;;5051515;28;20410;-86
2021/01/26 05:31:45;;;;;;;1.43;1.20;;;21.10;50.80;;;;;;5033729;28;20484;-85
2021/01/26 05:34:18;;;;;;;1.33;1.17;;;21.10;50.80;;;;;;5035505;28;20425;-84
2021/01/26 05:36:58;;;;;;;1.60;1.40;;;21.10;50.80;;;;;;5052589;28;20401;-85
2021/01/26 05:39:58;;;;;;;2.17;1.20;;;21.10;50.80;;;;;;5050034;28;20419;-85
2021/01/26 05:42:24;;;;;;;1.33;1.10;;;21.10;50.80;;;;;;5036194;28;20414;-83
2021/01/26 05:44:55;;;;;;;1.30;1.13;;;21.10;50.80;;;;;;5034965;28;20449;-84
2021/01/26 05:47:32;;;;;;;2.33;1.17;;;21.10;50.80;;;;;;5051753;28;20405;-85
2021/01/26 05:49:58;;;;;;;1.33;1.20;;;21.10;50.80;;;;;;5035582;28;20421;-84
2021/01/26 05:52:40;;;;;;;2.33;1.40;;;21.10;50.80;;;;;;5033190;28;20426;-84
2021/01/26 05:55:23;;;;;;;1.30;1.20;;;21.20;50.90;;;;;;5047607;28;20460;-84
2021/01/26 05:57:50;;;;;;;1.50;1.40;;;21.20;50.80;;;;;;5047932;28;20411;-84
2021/01/26 06:00:24;;;;;;;1.80;1.10;;;21.10;50.70;;;;;;5030066;28;20498;-83
2021/01/26 06:03:09;;;;;;;1.30;1.00;;;21.20;50.80;;;;;;5048412;28;20415;-86
2021/01/26 06:05:35;;;;;;;1.20;1.10;;;21.20;50.80;;;;;;5031318;28;20422;-83
2021/01/26 06:08:15;;;;;;;1.97;1.40;;;21.20;50.80;;;;;;5030963;28;20426;-84
2021/01/26 06:10:44;;;;;;;1.10;1.00;;;21.20;50.80;;;;;;5030930;28;20433;-84
2021/01/26 06:13:10;;;;;;;1.40;1.30;;;21.20;50.80;;;;;;5033390;28;20517;-84
2021/01/26 06:15:42;;;;;;;1.40;1.17;;;21.20;50.70;;;;;;5033785;28;20473;-84
2021/01/26 06:18:15;;;;;;;1.73;1.50;;;21.20;50.50;;;;;;5032103;28;20924;-84
2021/01/26 06:20:43;;;;;;;2.10;1.20;;;21.20;50.50;;;;;;5034150;28;20421;-84
2021/01/26 06:23:29;;;;;;;1.57;1.27;;;21.20;50.50;;;;;;5031875;28;20417;-84
2021/01/26 06:26:02;;;;;;;1.23;1.10;;;21.20;50.50;;;;;;5033941;28;20422;-84
2021/01/26 06:28:57;;;;;;;2.77;1.40;;;21.20;50.50;;;;;;5017088;28;20442;-84
2021/01/26 06:31:49;;;;;;;1.30;1.13;;;21.20;50.50;;;;;;5031248;28;20418;-83
2021/01/26 06:34:29;;;;;;;1.67;1.20;;;21.30;50.60;;;;;;4999900;28;20452;-84
2021/01/26 06:37:06;;;;;;;1.27;1.03;;;21.20;50.50;;;;;;5050610;28;20409;-84
2021/01/26 06:53:35;;;;;;;1.67;1.10;;;21.40;50.30;;;;;;5067096;28;20411;-86
2021/01/26 06:56:34;;;;;;;1.60;1.27;;;21.40;50.30;;;;;;5052060;28;20541;-86
2021/01/26 07:03:08;;;;;;;1.33;1.20;;;21.40;50.20;;;;;;5074995;28;20385;-85
2021/01/26 07:06:44;;;;;;;;;;;;;;;;;;;;;
2021/01/26 07:09:58;;;;;;;1.30;1.03;;;21.50;50.30;;;;;;4992089;28;20416;-86
2021/01/26 07:13:01;;;;;;;1.40;1.10;;;21.50;50.30;;;;;;4973835;28;20429;-86
2021/01/26 07:16:06;;;;;;;1.40;1.10;;;21.50;50.30;;;;;;4972952;28;20583;-86
2021/01/26 07:19:07;;;;;;;1.67;1.57;;;21.50;50.30;;;;;;4931264;29;20416;-86
2021/01/26 07:21:57;;;;;;;1.80;1.10;;;21.60;50.30;;;;;;4989173;28;20446;-85
2021/01/26 07:25:02;;;;;;;1.63;1.30;;;21.60;50.30;;;;;;4973653;28;20417;-85
2021/01/26 07:31:11;;;;;;;1.47;1.27;;;21.60;50.30;;;;;;4989374;28;20384;-86
2021/01/26 07:33:46;;;;;;;1.50;0.90;;;21.60;50.30;;;;;;5025081;22;20807;-69
2021/01/26 07:36:13;;;;;;;1.37;1.07;;;21.60;50.30;;;;;;5095552;28;20481;-69
2021/01/26 07:38:48;;;;;;;1.27;1.17;;;21.60;50.30;;;;;;5095474;28;20404;-70
2021/01/26 07:41:51;;;;;;;1.30;1.07;;;21.60;50.20;;;;;;5095782;28;20442;-69
2021/01/26 07:44:30;;;;;;;1.80;1.10;;;21.70;50.20;;;;;;5095440;28;20392;-69
2021/01/26 07:47:07;;;;;;;1.10;1.00;;;21.70;50.30;;;;;;5095325;28;20799;-71
2021/01/26 07:49:53;;;;;;;1.40;1.07;;;21.70;50.20;;;;;;5095302;28;20396;-71
2021/01/26 07:52:21;;;;;;;1.60;1.20;;;21.70;50.20;;;;;;5095307;28;20387;-70
2021/01/26 07:55:06;;;;;;;1.90;1.50;;;21.70;50.20;;;;;;5095098;28;20447;-69
2021/01/26 07:57:43;;;;;;;1.77;1.20;;;21.70;50.10;;;;;;5095153;28;20431;-69
2021/01/26 08:00:11;;;;;;;1.50;1.20;;;21.70;50.20;;;;;;5095225;28;20392;-70
2021/01/26 08:02:40;;;;;;;1.20;1.00;;;21.70;50.20;;;;;;5095129;28;20404;-69
2021/01/26 08:05:17;;;;;;;1.77;1.33;;;21.70;50.20;;;;;;5094956;28;20437;-69
2021/01/26 08:07:44;;;;;;;1.43;1.10;;;21.70;50.20;;;;;;5094729;28;20428;-69
2021/01/26 08:10:22;;;;;;;1.07;0.97;;;21.70;50.20;;;;;;5094213;28;20480;-70
2021/01/26 08:12:49;;;;;;;1.70;1.17;;;21.70;50.20;;;;;;5076600;28;20460;-69
2021/01/26 08:15:28;;;;;;;1.93;1.00;;;21.70;50.20;;;;;;5094787;28;20458;-70
2021/01/26 08:17:54;;;;;;;1.03;0.93;;;21.70;50.20;;;;;;5094601;28;20420;-70
2021/01/26 08:20:20;;;;;;;1.20;1.00;;;21.70;50.20;;;;;;5094707;28;20411;-70
2021/01/26 08:22:54;;;;;;;1.40;1.00;;;21.70;50.20;;;;;;5094679;28;20413;-70
2021/01/26 08:25:24;;;;;;;1.30;1.20;;;21.70;50.20;;;;;;5076530;28;20174;-68
2021/01/26 08:28:03;;;;;;;1.10;0.90;;;21.70;50.20;;;;;;5094497;28;20507;-70
2021/01/26 08:30:48;;;;;;;1.10;1.00;;;21.70;50.30;;;;;;5076425;28;20412;-69
2021/01/26 08:33:43;;;;;;;3.57;1.07;;;21.70;50.30;;;;;;5094314;28;20898;-69
2021/01/26 08:36:27;;;;;;;1.30;1.10;;;21.70;50.30;;;;;;5092329;28;20472;-69
2021/01/26 08:38:56;;;;;;;1.73;1.00;;;21.70;50.30;;;;;;5094501;28;20388;-69
2021/01/26 08:41:34;;;;;;;2.17;1.30;;;21.70;50.30;;;;;;5094337;28;20404;-68
2021/01/26 08:43:59;;;;;;;1.50;1.10;;;21.80;50.30;;;;;;5094644;28;20909;-69
2021/01/26 08:46:34;;;;;;;1.80;1.20;;;21.80;50.30;;;;;;5076007;28;20443;-68
2021/01/26 08:49:04;;;;;;;2.67;1.20;;;21.80;50.80;;;;;;5094534;28;20195;-68
2021/01/26 08:51:29;;;;;;;1.87;1.20;;;21.80;50.20;;;;;;5094194;28;20412;-69
2021/01/26 08:53:56;;;;;;;1.50;1.10;;;21.80;50.20;;;;;;5094087;28;20921;-69
2021/01/26 08:56:25;;;;;;;1.20;1.10;;;21.80;50.10;;;;;;5093987;28;20623;-69
2021/01/26 08:58:55;;;;;;;1.43;1.17;;;21.80;50.10;;;;;;5094070;28;20404;-67
2021/01/26 09:01:24;;;;;;;1.33;1.13;;;21.90;50.20;;;;;;5094488;28;20411;-69
2021/01/26 09:03:54;;;;;;;1.20;1.00;;;21.90;50.20;;;;;;5093753;28;20765;-70
2021/01/26 09:06:38;;;;;;;1.37;1.00;;;21.90;50.10;;;;;;5094047;28;20427;-67
2021/01/26 09:09:09;;;;;;;2.23;1.50;;;21.90;50.10;;;;;;5093939;28;20403;-71
2021/01/26 09:11:43;;;;;;;1.60;1.37;;;21.90;50.70;;;;;;5094878;28;20463;-69
2021/01/26 09:14:30;;;;;;;1.23;1.10;;;21.90;50.10;;;;;;5093920;28;20495;-69
2021/01/26 09:17:10;;;;;;;1.13;0.90;;;22.00;50.10;;;;;;5094220;28;20997;-67
2021/01/26 09:19:39;;;;;;;1.10;1.00;;;22.00;50.20;;;;;;5094375;28;20480;-69
2021/01/26 09:22:08;;;;;;;1.50;1.10;;;22.00;50.20;;;;;;5094181;28;20419;-69
2021/01/26 09:24:36;;;;;;;1.20;1.10;;;22.00;50.10;;;;;;5093661;28;20756;-68
2021/01/26 09:27:30;;;;;;;1.43;1.00;;;22.00;50.10;;;;;;5093433;28;20434;-68
2021/01/26 09:30:08;;;;;;;1.17;1.07;;;22.00;50.10;;;;;;5090878;28;20553;-69
2021/01/26 09:32:36;;;;;;;1.43;1.00;;;22.00;50.10;;;;;;5093758;28;20388;-69
2021/01/26 09:35:12;;;;;;;1.63;1.10;;;22.00;50.10;;;;;;5093228;28;20826;-68
2021/01/26 09:37:38;;;;;;;1.23;1.00;;;22.00;50.10;;;;;;5093657;28;20565;-68
2021/01/26 09:40:12;;;;;;;1.20;0.90;;;22.00;50.10;;;;;;5093210;28;20491;-69
2021/01/26 09:42:41;;;;;;;1.30;0.90;;;22.10;50.20;;;;;;5093386;28;20562;-68
2021/01/26 09:45:09;;;;;;;1.50;1.10;;;22.10;50.20;;;;;;5093555;28;20410;-68
2021/01/26 09:47:35;;;;;;;1.27;1.07;;;22.10;50.20;;;;;;5074899;28;20436;-68
2021/01/26 09:50:06;;;;;;;1.50;1.30;;;22.10;50.20;;;;;;5093379;28;20909;-70
2021/01/26 09:52:32;;;;;;;1.27;0.93;;;22.10;50.10;;;;;;5075082;28;20524;-68
2021/01/26 09:55:08;;;;;;;1.70;1.03;;;22.10;50.10;;;;;;5074898;28;20501;-69
2021/01/26 09:57:35;;;;;;;0.93;0.83;;;22.10;50.10;;;;;;5093041;28;20419;-70
2021/01/26 10:00:04;;;;;;;1.53;1.00;;;22.10;50.10;;;;;;5074768;28;20439;-68
2021/01/26 10:02:30;;;;;;;1.50;0.73;;;22.10;50.10;;;;;;5074835;28;20412;-68
2021/01/26 10:04:56;;;;;;;1.00;0.80;;;22.10;50.10;;;;;;5093658;28;20415;-69
2021/01/26 10:07:23;;;;;;;1.30;1.00;;;22.10;50.20;;;;;;5093835;28;20598;-70
2021/01/26 10:09:50;;;;;;;1.77;1.10;;;22.10;50.10;;;;;;5094310;28;20404;-70
2021/01/26 10:12:37;;;;;;;1.20;0.93;;;22.10;50.10;;;;;;5094799;28;20404;-68
2021/01/26 10:15:09;;;;;;;1.90;1.03;;;22.20;50.30;;;;;;5093658;28;20981;-70
2021/01/26 10:17:55;;;;;;;1.00;0.90;;;22.20;50.30;;;;;;5075189;28;20967;-68
2021/01/26 10:20:35;;;;;;;1.90;1.20;;;22.20;50.20;;;;;;5075497;28;20438;-66
2021/01/26 10:23:14;;;;;;;1.07;0.80;;;22.20;50.30;;;;;;5093106;28;20383;-69
2021/01/26 10:25:43;;;;;;;1.40;1.10;;;22.20;50.30;;;;;;5093137;28;20418;-65
2021/01/26 10:28:26;;;;;;;1.30;1.00;;;22.20;50.30;;;;;;5093584;28;20406;-69
2021/01/26 10:30:54;;;;;;;1.10;0.90;;;22.20;50.30;;;;;;5093546;28;20423;-69
2021/01/26 10:33:36;;;;;;;1.20;0.80;;;22.20;50.30;;;;;;5096995;28;20886;-69
2021/01/26 10:36:28;;;;;;;1.20;0.90;;;22.20;50.30;;;;;;5078905;28;21018;-69
2021/01/26 10:38:55;;;;;;;1.23;0.80;;;22.20;50.30;;;;;;5065070;28;20415;-69
2021/01/26 10:41:39;;;;;;;1.00;0.80;;;22.20;50.30;;;;;;5098062;28;20418;-69
2021/01/26 10:44:11;;;;;;;1.53;1.03;;;22.20;50.30;;;;;;5080291;28;20557;-69
2021/01/26 10:46:46;;;;;;;1.00;0.90;;;22.20;50.30;;;;;;5097134;28;20485;-70
2021/01/26 10:49:16;;;;;;;1.13;0.80;;;22.20;50.30;;;;;;5078861;28;20410;-68
2021/01/26 10:51:44;;;;;;;0.90;0.80;;;22.20;50.30;;;;;;5097135;28;20445;-69
2021/01/26 10:54:10;;;;;;;1.00;0.80;;;22.20;50.30;;;;;;5078634;28;20823;-68
2021/01/26 10:56:36;;;;;;;1.10;0.80;;;22.20;50.30;;;;;;5097154;28;20806;-69
2021/01/26 10:59:02;;;;;;;1.63;0.80;;;22.20;50.30;;;;;;5097603;28;20537;-69
2021/01/26 11:01:29;;;;;;;1.00;0.73;;;22.20;50.30;;;;;;5096671;28;20399;-68
2021/01/26 11:03:55;;;;;;;2.67;1.00;;;22.20;50.30;;;;;;5096352;28;20949;-70
2021/01/26 11:06:22;;;;;;;2.37;1.10;;;22.20;50.30;;;;;;5096101;28;20434;-71
2021/01/26 11:08:48;;;;;;;2.17;1.00;;;22.20;50.30;;;;;;5096301;28;20902;-71
2021/01/26 11:11:17;;;;;;;0.90;0.80;;;22.20;50.30;;;;;;5096073;28;20422;-69
2021/01/26 11:13:43;;;;;;;1.40;1.00;;;22.20;50.30;;;;;;5096050;28;20711;-71
2021/01/26 11:16:09;;;;;;;1.90;1.00;;;22.20;50.30;;;;;;5095755;28;20463;-71
2021/01/26 11:18:35;;;;;;;1.17;1.07;;;22.20;50.20;;;;;;5078278;28;20794;-71
2021/01/26 11:21:01;;;;;;;0.90;0.80;;;22.20;50.30;;;;;;5077836;28;20189;-69
2021/01/26 11:23:27;;;;;;;1.30;0.97;;;22.20;50.30;;;;;;5096100;28;20264;-67
2021/01/26 11:25:53;;;;;;;1.10;0.80;;;22.20;50.30;;;;;;5095737;28;20423;-70
2021/01/26 11:28:19;;;;;;;1.97;1.10;;;22.20;50.30;;;;;;5095859;28;20408;-69
2021/01/26 11:30:46;;;;;;;1.20;1.00;;;22.20;50.30;;;;;;5095711;28;20181;-69
2021/01/26 11:33:11;;;;;;;1.40;0.87;;;22.20;50.20;;;;;;5095594;28;20170;-69
2021/01/26 11:35:37;;;;;;;1.10;0.90;;;22.20;50.20;;;;;;5077952;28;20613;-68
2021/01/26 11:38:03;;;;;;;1.00;0.83;;;22.20;50.20;;;;;;5095499;28;20161;-67
2021/01/26 11:40:29;;;;;;;1.10;1.00;;;22.20;50.20;;;;;;5095620;28;20302;-68
2021/01/26 11:42:55;;;;;;;1.20;0.90;;;22.30;50.30;;;;;;5095648;28;20510;-68
2021/01/26 11:45:33;;;;;;;0.90;0.70;;;22.20;50.20;;;;;;5078324;28;20492;-69
2021/01/26 11:48:00;;;;;;;1.30;1.10;;;22.30;50.30;;;;;;5077208;28;20201;-68
2021/01/26 11:50:27;;;;;;;1.07;0.80;;;22.20;50.80;;;;;;5095273;28;20490;-69
2021/01/26 11:52:53;;;;;;;1.43;1.20;;;22.30;50.30;;;;;;5095177;28;20408;-69
2021/01/26 11:55:24;;;;;;;1.20;0.93;;;22.30;50.30;;;;;;5095170;28;20462;-70
2021/01/26 11:57:51;;;;;;;1.00;0.90;;;22.30;50.30;;;;;;5095149;28;20767;-69
2021/01/26 12:00:20;;;;;;;1.10;0.90;;;22.30;50.30;;;;;;5094999;28;20440;-69
2021/01/26 12:02:46;;;;;;;1.37;0.83;;;22.30;50.90;;;;;;5095330;28;20458;-69
2021/01/26 12:05:12;;;;;;;1.60;0.97;;;22.30;50.30;;;;;;5076878;28;20412;-69
2021/01/26 12:07:38;;;;;;;1.10;0.83;;;22.30;50.30;;;;;;5094906;28;20189;-70
2021/01/26 12:10:05;;;;;;;2.40;1.20;;;22.30;50.30;;;;;;5076818;28;20756;-69
2021/01/26 12:12:31;;;;;;;2.07;1.00;;;22.30;50.30;;;;;;5094864;28;20414;-69
2021/01/26 12:14:56;;;;;;;1.60;0.90;;;22.30;50.30;;;;;;5094749;28;20456;-71
2021/01/26 12:17:23;;;;;;;2.00;1.00;;;22.30;50.30;;;;;;5094824;28;20186;-70
2021/01/26 12:19:48;;;;;;;0.90;0.73;;;22.30;50.30;;;;;;5095127;28;20635;-70
2021/01/26 12:22:14;;;;;;;1.10;0.90;;;22.30;50.30;;;;;;5094741;28;20404;-68
2021/01/26 12:24:39;;;;;;;1.90;0.90;;;22.30;50.30;;;;;;5094768;28;20638;-69
2021/01/26 12:27:05;;;;;;;0.90;0.80;;;22.30;50.30;;;;;;5094524;28;20189;-68
2021/01/26 12:29:30;;;;;;;0.90;0.80;;;22.30;50.30;;;;;;5094570;28;20520;-68
2021/01/26 12:31:56;;;;;;;1.10;0.70;;;22.30;50.30;;;;;;5094514;28;20181;-68
2021/01/26 12:34:22;;;;;;;1.87;0.90;;;22.30;50.30;;;;;;5094250;28;20195;-69
2021/01/26 12:36:49;;;;;;;1.50;0.90;;;22.30;50.30;;;;;;5094398;28;20197;-70
2021/01/26 12:39:14;;;;;;;1.50;0.97;;;22.30;50.30;;;;;;5076179;28;20216;-70
2021/01/26 12:41:40;;;;;;;1.40;1.10;;;22.30;50.30;;;;;;5094282;28;20403;-70
2021/01/26 12:44:07;;;;;;;1.33;0.83;;;22.30;50.30;;;;;;5094341;28;20169;-71
2021/01/26 12:46:38;;;;;;;2.30;0.90;;;22.30;50.30;;;;;;5094517;28;20186;-68
2021/01/26 12:49:05;;;;;;;2.20;0.90;;;22.30;50.90;;;;;;5094051;28;20430;-68
2021/01/26 12:51:30;;;;;;;2.20;0.90;;;22.30;50.90;;;;;;5094129;28;20400;-67
2021/01/26 12:53:56;;;;;;;4.40;0.80;;;22.40;50.40;;;;;;5094019;28;20423;-69
2021/01/26 12:56:23;;;;;;;1.00;0.70;;;22.40;50.40;;;;;;5093547;28;20212;-72
2021/01/26 12:58:49;;;;;;;0.90;0.77;;;22.30;50.30;;;;;;5094166;28;20165;-74
2021/01/26 13:01:15;;;;;;;1.57;1.10;;;22.30;50.30;;;;;;5094007;28;20411;-72
2021/01/26 13:03:40;;;;;;;1.40;0.83;;;22.30;50.30;;;;;;5093857;28;20414;-72
2021/01/26 13:06:06;;;;;;;1.57;1.00;;;22.30;50.30;;;;;;5093825;28;20427;-73
2021/01/26 13:08:32;;;;;;;1.00;0.90;;;22.30;50.30;;;;;;5094024;28;20249;-71
2021/01/26 13:10:57;;;;;;;1.10;0.90;;;22.30;50.30;;;;;;5075659;28;20543;-72
2021/01/26 13:13:23;;;;;;;1.40;1.30;;;22.30;50.30;;;;;;5075515;28;20169;-71
2021/01/26 13:15:48;;;;;;;1.00;0.90;;;22.30;50.40;;;;;;5093854;28;20243;-70
2021/01/26 13:18:14;;;;;;;1.10;0.90;;;22.30;50.40;;;;;;5075508;28;20204;-70
2021/01/26 13:20:41;;;;;;;1.63;1.00;;;22.20;50.30;;;;;;5093533;28;20166;-69
2021/01/26 13:23:08;;;;;;;1.30;0.80;;;22.20;50.30;;;;;;5093582;28;20655;-68
2021/01/26 13:25:33;;;;;;;2.33;1.97;;;22.20;50.30;;;;;;5093930;28;20404;-68
2021/01/26 13:27:59;;;;;;;1.50;1.00;;;22.20;50.30;;;;;;5093668;28;20419;-70
2021/01/26 13:30:25;;;;;;;2.40;1.07;;;22.20;50.30;;;;;;5075220;28;20170;-70
2021/01/26 13:32:51;;;;;;;1.30;1.03;;;22.20;50.30;;;;;;5093581;28;20180;-69
2021/01/26 13:35:30;;;;;;;1.20;0.93;;;22.20;50.30;;;;;;5093093;28;20980;-70
2021/01/26 13:37:56;;;;;;;1.10;0.90;;;22.20;50.30;;;;;;5093276;28;20246;-71
2021/01/26 13:40:22;;;;;;;1.40;1.00;;;22.20;50.40;;;;;;5093259;28;20491;-70
2021/01/26 13:42:48;;;;;;;1.37;1.00;;;22.20;50.40;;;;;;5093339;28;20507;-70
2021/01/26 13:45:15;;;;;;;1.30;0.90;;;22.20;50.40;;;;;;5093213;28;20253;-70
2021/01/26 13:47:41;;;;;;;1.13;1.00;;;22.20;50.40;;;;;;5093121;28;20428;-71
2021/01/26 13:50:08;;;;;;;1.07;0.83;;;22.10;50.40;;;;;;5074945;28;20766;-71